createdAt,value
2022-10-09T00:01:16.917Z,36.19
2022-10-09T00:04:19.194Z,36.10
2022-10-09T00:07:21.413Z,36.31
2022-10-09T00:10:23.720Z,35.97
2022-10-09T00:13:26.047Z,35.92
2022-10-09T00:16:28.919Z,36.11
2022-10-09T00:19:31.535Z,36.03
2022-10-09T00:22:33.864Z,36.32
2022-10-09T00:25:36.737Z,36.08
2022-10-09T00:28:39.157Z,35.91
2022-10-09T00:31:41.617Z,36.16
2022-10-09T00:34:44.297Z,36.03
2022-10-09T00:37:46.595Z,36.29
2022-10-09T00:40:48.860Z,36.22
2022-10-09T00:43:54.547Z,36.05
2022-10-09T00:46:56.770Z,35.84
2022-10-09T00:50:17.558Z,36.00
2022-10-09T00:53:23.398Z,36.14
2022-10-09T00:56:26.019Z,36.33
2022-10-09T00:59:30.186Z,35.95
2022-10-09T01:02:32.462Z,36.25
2022-10-09T01:05:50.712Z,36.32
2022-10-09T01:09:05.972Z,36.01
2022-10-09T01:12:10.914Z,35.90
2022-10-09T01:15:21.591Z,36.15
2022-10-09T01:18:38.308Z,36.05
2022-10-09T01:21:55.215Z,35.97
2022-10-09T01:25:23.901Z,36.16
2022-10-09T01:28:30.351Z,36.21
2022-10-09T01:31:36.133Z,36.06
2022-10-09T01:34:40.836Z,36.28
2022-10-09T01:37:45.860Z,36.21
2022-10-09T01:40:48.634Z,36.14
2022-10-09T01:43:50.827Z,35.90
2022-10-09T01:46:53.552Z,36.09
2022-10-09T01:50:12.849Z,36.05
2022-10-09T01:53:19.727Z,36.04
2022-10-09T01:56:24.234Z,36.08
2022-10-09T01:59:28.059Z,35.80
2022-10-09T02:02:30.753Z,35.91
2022-10-09T02:05:33.229Z,36.27
2022-10-09T02:08:38.157Z,36.22
2022-10-09T02:11:43.849Z,35.76
2022-10-09T02:14:46.133Z,36.04
2022-10-09T02:17:51.459Z,36.21
2022-10-09T02:21:00.406Z,36.01
2022-10-09T02:24:06.369Z,36.16
2022-10-09T02:27:10.236Z,36.04
2022-10-09T02:30:13.984Z,36.09
2022-10-09T02:33:16.162Z,36.30
2022-10-09T02:36:18.321Z,35.94
2022-10-09T02:39:20.521Z,36.07
2022-10-09T02:42:22.697Z,35.96
2022-10-09T02:45:24.907Z,35.85
2022-10-09T02:48:27.199Z,36.09
2022-10-09T02:51:29.482Z,35.92
2022-10-09T02:54:31.745Z,36.18
2022-10-09T02:57:33.934Z,36.18
2022-10-09T03:00:38.533Z,36.22
2022-10-09T03:03:41.075Z,35.96
2022-10-09T03:06:43.269Z,35.98
2022-10-09T03:09:45.553Z,35.91
2022-10-09T03:12:48.209Z,36.34
2022-10-09T03:15:50.661Z,36.30
2022-10-09T03:18:54.023Z,36.11
2022-10-09T03:21:56.194Z,36.26
2022-10-09T03:24:58.460Z,36.25
2022-10-09T03:28:01.673Z,36.24
2022-10-09T03:31:04.735Z,36.09
2022-10-09T03:34:07.442Z,36.27
2022-10-09T03:37:09.931Z,36.40
2022-10-09T03:40:12.144Z,36.23
2022-10-09T03:43:14.382Z,36.33
2022-10-09T03:46:17.273Z,36.30
2022-10-09T03:49:19.495Z,36.36
2022-10-09T03:52:21.765Z,36.43
2022-10-09T03:55:23.933Z,36.23
2022-10-09T03:58:26.305Z,36.26
2022-10-09T04:01:28.691Z,36.32
2022-10-09T04:04:31.002Z,36.35
2022-10-09T04:07:33.341Z,36.36
2022-10-09T04:10:35.617Z,36.57
2022-10-09T04:13:37.934Z,36.29
2022-10-09T04:16:40.240Z,36.56
2022-10-09T04:19:42.455Z,36.25
2022-10-09T04:22:44.937Z,36.31
2022-10-09T04:25:47.272Z,36.22
2022-10-09T04:28:49.529Z,36.54
2022-10-09T04:31:52.797Z,36.59
2022-10-09T04:34:55.008Z,36.39
2022-10-09T04:37:57.185Z,36.34
2022-10-09T04:41:08.369Z,36.58
2022-10-09T04:44:10.540Z,36.70
2022-10-09T04:47:12.835Z,36.66
2022-10-09T04:50:15.395Z,36.58
2022-10-09T04:53:34.105Z,36.75
2022-10-09T04:56:36.314Z,36.54
2022-10-09T04:59:38.521Z,36.80
2022-10-09T05:02:40.712Z,36.49
2022-10-09T05:05:42.927Z,36.54
2022-10-09T05:08:45.805Z,36.51
2022-10-09T05:11:48.043Z,36.57
2022-10-09T05:14:50.247Z,36.53
2022-10-09T05:17:52.443Z,36.50
2022-10-09T05:20:54.865Z,36.77
2022-10-09T05:23:57.238Z,36.81
2022-10-09T05:26:59.482Z,36.63
2022-10-09T05:30:01.900Z,36.70
2022-10-09T05:33:04.048Z,36.81
2022-10-09T05:36:06.590Z,36.56
2022-10-09T05:39:08.814Z,36.64
2022-10-09T05:42:10.989Z,36.57
2022-10-09T05:45:13.345Z,36.50
2022-10-09T05:48:15.530Z,36.47
2022-10-09T05:51:29.593Z,36.71
2022-10-09T05:54:31.781Z,36.83
2022-10-09T05:57:34.018Z,36.77
2022-10-09T06:00:36.238Z,36.81
2022-10-09T06:03:38.984Z,36.82
2022-10-09T06:06:41.540Z,37.03
2022-10-09T06:09:43.716Z,36.69
2022-10-09T06:12:46.083Z,36.91
2022-10-09T06:15:55.125Z,37.09
2022-10-09T06:18:58.285Z,36.80
2022-10-09T06:22:00.494Z,36.71
2022-10-09T06:25:02.730Z,36.60
2022-10-09T06:28:05.114Z,36.52
2022-10-09T06:31:13.050Z,36.42
2022-10-09T06:34:15.279Z,36.53
2022-10-09T06:37:17.574Z,36.54
2022-10-09T06:40:19.904Z,36.32
2022-10-09T06:43:22.224Z,36.30
2022-10-09T06:46:28.591Z,36.31
2022-10-09T06:49:30.853Z,36.22
2022-10-09T06:52:33.067Z,36.33
2022-10-09T06:55:35.311Z,36.33
2022-10-09T06:58:39.148Z,36.35
2022-10-09T07:01:41.573Z,36.14
2022-10-09T07:04:44.085Z,36.17
2022-10-09T07:07:46.389Z,36.12
2022-10-09T07:10:48.567Z,35.70
2022-10-09T07:13:53.796Z,36.01
2022-10-09T07:16:56.002Z,36.22
2022-10-09T07:19:58.199Z,35.99
2022-10-09T07:23:00.397Z,36.05
2022-10-09T07:26:08.983Z,35.97
2022-10-09T07:29:14.421Z,35.99
2022-10-09T07:32:16.649Z,36.05
2022-10-09T07:35:18.848Z,36.04
2022-10-09T07:38:21.261Z,35.97
2022-10-09T07:41:25.990Z,35.93
2022-10-09T07:44:28.256Z,35.91
2022-10-09T07:47:30.601Z,35.83
2022-10-09T07:50:32.933Z,35.56
2022-10-09T07:53:36.084Z,35.64
2022-10-09T07:56:38.681Z,35.64
2022-10-09T07:59:41.256Z,35.48
2022-10-09T08:02:43.625Z,35.35
2022-10-09T08:05:54.966Z,35.25
2022-10-09T08:08:59.287Z,35.26
2022-10-09T08:12:01.483Z,35.50
2022-10-09T08:15:03.990Z,35.45
2022-10-09T08:18:06.238Z,35.32
2022-10-09T08:21:12.211Z,35.51
2022-10-09T08:24:14.557Z,35.62
2022-10-09T08:27:16.746Z,35.67
2022-10-09T08:30:19.150Z,35.68
2022-10-09T08:33:23.333Z,35.73
2022-10-09T08:36:26.511Z,35.76
2022-10-09T08:39:31.018Z,35.77
2022-10-09T08:42:43.563Z,35.88
2022-10-09T08:45:47.366Z,35.77
2022-10-09T08:48:52.030Z,35.81
2022-10-09T08:51:56.605Z,36.18
2022-10-09T08:55:06.276Z,36.06
2022-10-09T08:58:16.293Z,36.14
2022-10-09T09:01:24.637Z,36.07
2022-10-09T09:04:38.713Z,36.40
2022-10-09T09:07:49.880Z,36.23
2022-10-09T09:11:08.459Z,36.09
2022-10-09T09:14:25.630Z,36.08
2022-10-09T09:17:38.575Z,36.23
2022-10-09T09:21:05.473Z,36.12
2022-10-09T09:24:17.181Z,36.12
2022-10-09T09:27:22.741Z,36.15
2022-10-09T09:30:27.291Z,36.05
2022-10-09T09:33:44.469Z,36.33
2022-10-09T09:37:00.206Z,36.16
2022-10-09T09:43:26.847Z,36.52
2022-10-09T09:46:30.594Z,36.62
2022-10-09T09:49:32.829Z,35.91
2022-10-09T09:52:43.619Z,36.17
2022-10-09T09:55:46.046Z,36.20
2022-10-09T09:58:55.665Z,36.36
2022-10-09T10:02:02.859Z,36.29
2022-10-09T10:05:26.251Z,36.53
2022-10-09T10:08:31.370Z,36.22
2022-10-09T10:11:35.695Z,36.41
2022-10-09T10:14:37.941Z,36.30
2022-10-09T10:17:40.232Z,36.15
2022-10-09T10:20:46.145Z,36.12
2022-10-09T10:27:19.498Z,36.17
2022-10-09T10:30:21.649Z,36.51
2022-10-09T10:33:31.961Z,36.27
2022-10-09T10:36:34.493Z,36.26
2022-10-09T10:39:46.731Z,36.34
2022-10-09T10:43:01.168Z,36.29
2022-10-09T10:46:14.375Z,36.31
2022-10-09T10:49:21.125Z,36.29
2022-10-09T10:52:45.117Z,36.45
2022-10-09T10:56:00.270Z,36.43
2022-10-09T10:59:12.536Z,36.34
2022-10-09T11:02:48.815Z,36.26
2022-10-09T11:05:57.221Z,36.25
2022-10-09T11:09:21.626Z,36.20
2022-10-09T11:12:49.887Z,36.18
2022-10-09T11:16:26.191Z,36.36
2022-10-09T11:19:41.800Z,36.24
2022-10-09T11:23:32.145Z,36.23
2022-10-09T11:26:53.274Z,36.17
2022-10-09T11:30:12.730Z,36.24
2022-10-09T11:33:27.072Z,36.15
2022-10-09T11:36:42.349Z,36.22
2022-10-09T11:39:45.170Z,36.16
2022-10-09T11:43:22.199Z,36.19
2022-10-09T11:46:36.754Z,36.26
2022-10-09T11:50:09.881Z,36.42
2022-10-09T11:53:16.213Z,36.36
2022-10-09T11:56:21.510Z,36.42
2022-10-09T11:59:29.867Z,36.24
2022-10-09T12:02:32.303Z,36.14
2022-10-09T12:05:48.816Z,36.24
2022-10-09T12:08:59.180Z,36.28
2022-10-09T12:12:07.327Z,36.13
2022-10-09T12:15:50.236Z,35.97
2022-10-09T12:18:52.691Z,36.15
2022-10-09T12:22:02.209Z,36.29
2022-10-09T12:25:27.356Z,36.33
2022-10-09T12:28:35.765Z,36.09
2022-10-09T12:31:41.560Z,36.13
2022-10-09T12:34:48.685Z,36.31
2022-10-09T12:37:51.255Z,36.28
2022-10-09T12:40:55.931Z,36.02
2022-10-09T12:43:59.297Z,36.35
2022-10-09T12:47:13.598Z,35.95
2022-10-09T12:50:18.805Z,36.35
2022-10-09T12:53:26.482Z,36.28
2022-10-09T12:56:32.905Z,36.21
2022-10-09T12:59:36.509Z,36.31
2022-10-09T13:02:40.277Z,36.29
2022-10-09T13:05:42.796Z,36.10
2022-10-09T13:08:45.863Z,36.23
2022-10-09T13:11:58.117Z,36.23
2022-10-09T13:15:08.292Z,36.09
2022-10-09T13:18:29.290Z,36.24
2022-10-09T13:21:35.281Z,35.93
2022-10-09T13:24:38.016Z,35.98
2022-10-09T13:27:40.301Z,36.13
2022-10-09T13:30:42.668Z,36.24
2022-10-09T13:33:46.110Z,36.10
2022-10-09T13:36:48.317Z,36.12
2022-10-09T13:40:00.164Z,36.20
2022-10-09T13:43:02.998Z,36.26
2022-10-09T13:46:05.429Z,35.91
2022-10-09T13:49:07.765Z,36.10
2022-10-09T13:52:10.067Z,36.32
2022-10-09T13:55:12.939Z,36.56
2022-10-09T13:58:15.111Z,36.11
2022-10-09T14:01:17.539Z,36.24
2022-10-09T14:04:20.291Z,36.03
2022-10-09T14:07:22.505Z,36.30
2022-10-09T14:10:24.733Z,36.27
2022-10-09T14:13:27.339Z,36.37
2022-10-09T14:16:30.574Z,36.15
2022-10-09T14:19:32.868Z,35.90
2022-10-09T14:22:35.126Z,36.19
2022-10-09T14:25:37.704Z,36.37
2022-10-09T14:28:40.048Z,35.96
2022-10-09T14:31:42.800Z,36.27
2022-10-09T14:34:45.118Z,36.35
2022-10-09T14:37:47.417Z,36.09
2022-10-09T14:40:49.565Z,36.35
2022-10-09T14:43:57.130Z,36.19
2022-10-09T14:46:59.355Z,36.49
2022-10-09T14:50:01.874Z,36.24
2022-10-09T14:53:04.101Z,36.13
2022-10-09T14:56:10.220Z,36.27
2022-10-09T14:59:12.831Z,36.55
2022-10-09T15:02:16.338Z,36.26
2022-10-09T15:05:18.517Z,36.42
2022-10-09T15:08:20.774Z,36.63
2022-10-09T15:11:23.344Z,36.49
2022-10-09T15:14:25.579Z,36.56
2022-10-09T15:17:27.795Z,36.23
2022-10-09T15:20:30.014Z,36.40
2022-10-09T15:23:32.225Z,36.37
2022-10-09T15:26:36.422Z,36.46
2022-10-09T15:29:38.657Z,36.55
2022-10-09T15:32:40.859Z,36.57
2022-10-09T15:35:43.248Z,36.43
2022-10-09T15:38:46.395Z,36.23
2022-10-09T15:41:48.618Z,36.25
2022-10-09T15:44:50.928Z,36.59
2022-10-09T15:47:53.109Z,36.53
2022-10-09T15:50:55.381Z,36.47
2022-10-09T15:53:59.947Z,36.24
2022-10-09T15:57:02.149Z,36.50
2022-10-09T16:00:04.829Z,36.65
2022-10-09T16:03:08.046Z,36.60
2022-10-09T16:06:14.111Z,36.41
2022-10-09T16:09:16.502Z,36.64
2022-10-09T16:12:18.716Z,36.56
2022-10-09T16:15:20.887Z,36.49
2022-10-09T16:18:23.993Z,36.49
2022-10-09T16:21:28.299Z,36.42
2022-10-09T16:24:31.587Z,36.51
2022-10-09T16:27:34.802Z,36.43
2022-10-09T16:30:44.309Z,36.51
2022-10-09T16:33:46.570Z,36.50
2022-10-09T16:36:48.843Z,36.27
2022-10-09T16:39:51.146Z,36.20
2022-10-09T16:42:53.424Z,36.49
2022-10-09T16:45:55.620Z,36.50
2022-10-09T16:48:59.875Z,36.51
2022-10-09T16:52:02.068Z,36.54
2022-10-09T16:55:05.082Z,36.31
2022-10-09T16:58:07.231Z,36.42
2022-10-09T17:01:10.710Z,36.52
2022-10-09T17:04:14.494Z,36.41
2022-10-09T17:07:16.837Z,36.72
2022-10-09T17:10:19.107Z,36.42
2022-10-09T17:13:21.294Z,36.46
2022-10-09T17:16:26.884Z,36.51
2022-10-09T17:19:29.194Z,36.64
2022-10-09T17:22:31.433Z,36.44
2022-10-09T17:25:37.833Z,36.40
2022-10-09T17:28:40.966Z,36.41
2022-10-09T17:31:43.236Z,36.50
2022-10-09T17:34:46.062Z,36.60
2022-10-09T17:37:48.386Z,36.60
2022-10-09T17:40:50.655Z,36.62
2022-10-09T17:43:55.435Z,36.44
2022-10-09T17:46:57.943Z,36.35
2022-10-09T17:50:00.135Z,36.57
2022-10-09T17:53:03.288Z,36.45
2022-10-09T17:56:05.559Z,36.53
2022-10-09T17:59:08.794Z,36.58
2022-10-09T18:02:11.037Z,36.59
2022-10-09T18:05:13.367Z,36.44
2022-10-09T18:08:17.694Z,36.36
2022-10-09T18:11:22.211Z,36.53
2022-10-09T18:14:24.411Z,36.52
2022-10-09T18:17:30.221Z,36.41
2022-10-09T18:20:38.250Z,36.50
2022-10-09T18:23:40.429Z,36.61
2022-10-09T18:26:43.329Z,36.34
2022-10-09T18:29:45.710Z,36.41
2022-10-09T18:32:48.890Z,36.67
2022-10-09T18:35:51.400Z,36.27
2022-10-09T18:38:58.305Z,36.75
2022-10-09T18:42:25.777Z,36.60
2022-10-09T18:45:28.023Z,36.13
2022-10-09T18:48:33.909Z,36.34
2022-10-09T18:51:37.844Z,36.30
2022-10-09T18:54:42.259Z,36.56
2022-10-09T18:57:45.909Z,36.31
2022-10-09T19:00:48.431Z,36.32
2022-10-09T19:03:50.611Z,36.38
2022-10-09T19:06:54.295Z,36.57
2022-10-09T19:09:57.657Z,36.54
2022-10-09T19:13:00.128Z,36.53
2022-10-09T19:16:05.733Z,36.31
2022-10-09T19:19:08.082Z,36.52
2022-10-09T19:22:15.255Z,36.23
2022-10-09T19:25:18.904Z,36.49
2022-10-09T19:28:23.528Z,36.19
2022-10-09T19:31:26.051Z,36.30
2022-10-09T19:34:29.768Z,36.34
2022-10-09T19:37:32.107Z,36.20
2022-10-09T19:40:35.025Z,36.24
2022-10-09T19:43:37.495Z,36.06
2022-10-09T19:46:40.233Z,36.34
2022-10-09T19:49:42.764Z,36.05
2022-10-09T19:52:46.880Z,36.35
2022-10-09T19:55:49.258Z,36.20
2022-10-09T19:58:52.219Z,36.05
2022-10-09T20:01:57.535Z,36.34
2022-10-09T20:05:00.080Z,36.11
2022-10-09T20:08:02.290Z,36.08
2022-10-09T20:11:05.282Z,36.32
2022-10-09T20:14:09.292Z,36.19
2022-10-09T20:17:11.955Z,36.11
2022-10-09T20:20:14.804Z,36.09
2022-10-09T20:23:17.045Z,36.04
2022-10-09T20:26:21.318Z,36.10
2022-10-09T20:29:25.734Z,36.12
2022-10-09T20:32:29.129Z,36.21
2022-10-09T20:35:31.431Z,35.89
2022-10-09T20:38:34.168Z,36.18
2022-10-09T20:41:37.172Z,36.04
2022-10-09T20:44:39.367Z,36.21
2022-10-09T20:47:41.912Z,36.06
2022-10-09T20:50:44.128Z,35.89
2022-10-09T20:53:50.813Z,36.00
2022-10-09T20:56:53.038Z,36.15
2022-10-09T20:59:55.934Z,36.15
2022-10-09T21:02:58.197Z,35.94
2022-10-09T21:06:09.080Z,36.17
2022-10-09T21:09:11.465Z,35.93
2022-10-09T21:12:13.950Z,35.94
2022-10-09T21:15:16.231Z,36.02
2022-10-09T21:18:19.409Z,35.90
2022-10-09T21:21:21.696Z,35.84
2022-10-09T21:24:23.890Z,35.87
2022-10-09T21:27:26.054Z,35.80
2022-10-09T21:30:29.009Z,35.67
2022-10-09T21:33:31.188Z,36.00
2022-10-09T21:36:55.904Z,36.06
2022-10-09T21:40:01.946Z,35.69
2022-10-09T21:43:05.266Z,35.75
2022-10-09T21:46:07.445Z,35.88
2022-10-09T21:49:19.961Z,35.97
2022-10-09T21:52:22.201Z,35.74
2022-10-09T21:55:24.413Z,35.84
2022-10-09T21:58:26.759Z,35.50
2022-10-09T22:01:28.996Z,35.84
2022-10-09T22:04:31.319Z,35.58
2022-10-09T22:07:34.096Z,35.73
2022-10-09T22:10:36.290Z,35.85
2022-10-09T22:13:38.967Z,35.62
2022-10-09T22:16:41.214Z,35.71
2022-10-09T22:19:43.705Z,35.50
2022-10-09T22:22:45.938Z,35.79
2022-10-09T22:25:59.200Z,35.74
2022-10-09T22:29:01.554Z,35.58
2022-10-09T22:32:04.036Z,35.82
2022-10-09T22:35:06.433Z,35.67
2022-10-09T22:38:08.622Z,35.57
2022-10-09T22:41:14.013Z,35.63
2022-10-09T22:44:16.219Z,35.35
2022-10-09T22:47:18.409Z,35.72
2022-10-09T22:50:20.735Z,35.42
2022-10-09T22:53:23.026Z,35.49
2022-10-09T22:56:28.896Z,35.21
2022-10-09T22:59:31.104Z,35.33
2022-10-09T23:02:33.366Z,35.39
2022-10-09T23:05:35.553Z,35.36
2022-10-09T23:08:39.568Z,35.39
2022-10-09T23:11:42.549Z,35.29
2022-10-09T23:14:44.807Z,35.15
2022-10-09T23:17:47.075Z,35.06
2022-10-09T23:20:49.399Z,35.51
2022-10-09T23:23:52.121Z,35.30
2022-10-09T23:26:54.368Z,35.19
2022-10-09T23:29:56.577Z,35.26
2022-10-09T23:32:58.915Z,35.09
2022-10-09T23:36:06.021Z,35.46
2022-10-09T23:39:08.470Z,34.99
2022-10-09T23:42:10.765Z,35.44
2022-10-09T23:45:13.026Z,35.11
2022-10-09T23:48:15.213Z,35.28
2022-10-09T23:51:19.138Z,35.48
2022-10-09T23:54:21.394Z,35.39
2022-10-09T23:57:23.667Z,35.06
